Time;durP1;ratioP1;P1;durP2;ratioP2;P2;SDS_P1;SDS_P2;PMS_P1;PMS_P2;Temp;Humidity;BMP_temperature;BMP_pressure;BME280_temperature;BME280_humidity;BME280_pressure;Samples;Min_cycle;Max_cycle;Signal;HPM_P1;HPM_P2
2021/07/10 00:00:07;;;;;;;;;;;20.30;81.20;20.40;99818.00;;;;335218;28;95679;-87
2021/07/10 00:00:18;;;;;;;;;;;20.30;81.60;20.30;99824.00;;;;331041;29;91962;-87
2021/07/10 00:00:30;;;;;;;;;;;20.30;81.70;20.40;99817.00;;;;332052;29;96570;-87
2021/07/10 00:00:42;;;;;;;;;;;20.30;81.50;20.30;99822.00;;;;334879;29;91215;-87
2021/07/10 00:00:54;;;;;;;;;;;20.30;81.50;20.30;99819.00;;;;335166;29;93101;-87
2021/07/10 00:01:05;;;;;;;;;;;20.30;81.60;20.50;99812.00;;;;337620;28;91799;-87
2021/07/10 00:01:17;;;;;;;;;;;20.30;81.30;20.50;99825.00;;;;336345;28;96610;-87
2021/07/10 00:01:30;;;;;;;;;;;20.30;81.30;20.60;99812.00;;;;333478;29;92494;-87
2021/07/10 00:01:41;;;;;;;;;;;20.30;81.30;20.50;99817.00;;;;333878;29;95243;-87
2021/07/10 00:01:53;;;;;;;;;;;20.30;81.40;20.60;99813.00;;;;336229;28;91265;-87
2021/07/10 00:02:05;;;;;;;;;;;20.30;81.20;20.70;99809.00;;;;336468;28;93061;-87
2021/07/10 00:02:17;;;;;;;;;;;20.30;81.30;20.60;99820.00;;;;336169;28;92071;-87
2021/07/10 00:02:29;;;;;;;;;;;20.30;81.20;20.60;99812.00;;;;336540;28;93638;-87
2021/07/10 00:02:41;;;;;;;;;;;20.30;81.20;20.60;99813.00;;;;334895;29;92116;-87
2021/07/10 00:02:52;;;;;;;;;;;20.30;81.40;20.50;99813.00;;;;336231;28;96742;-87
2021/07/10 00:03:05;;;;;;;;;;;20.30;81.50;20.50;99808.00;;;;337244;28;91213;-87
2021/07/10 00:03:17;;;;;;;;;;;20.30;81.20;20.50;99817.00;;;;336266;28;95473;-87
2021/07/10 00:03:29;;;;;;;;;;;20.30;81.60;20.50;99811.00;;;;336000;28;92191;-87
2021/07/10 00:03:40;;;;;;;;;;;20.30;81.20;20.50;99812.00;;;;335179;29;93695;-87
2021/07/10 00:03:52;;;;;;;;;;;20.30;81.00;20.40;99824.00;;;;333525;29;90391;-87
2021/07/10 00:04:06;;;;;;;;;;;20.30;81.60;20.40;99813.00;;;;336507;28;92816;-87
2021/07/10 00:04:18;;;;;;;;;;;20.30;81.30;20.50;99818.00;;;;337603;28;91932;-87
2021/07/10 00:04:30;;;;;;;;;;;20.30;81.10;20.50;99811.00;;;;335132;29;96337;-87
2021/07/10 00:04:41;;;;;;;;;;;20.30;81.10;20.50;99811.00;;;;336134;28;91967;-87
2021/07/10 00:04:53;;;;;;;;;;;20.30;81.00;20.50;99810.00;;;;336170;28;95891;-86
2021/07/10 00:05:05;;;;;;;;;;;20.30;81.00;20.50;99818.00;;;;334775;28;91987;-87
2021/07/10 00:05:17;;;;;;;;;;;20.30;81.10;20.50;99806.00;;;;337831;28;93313;-88
2021/07/10 00:05:29;;;;;;;;;;;20.30;81.10;20.50;99817.00;;;;336120;28;91959;-87
2021/07/10 00:05:41;;;;;;;;;;;20.30;81.20;20.50;99817.00;;;;336490;28;93508;-87
2021/07/10 00:05:52;;;;;;;;;;;20.30;81.20;20.50;99811.00;;;;336089;28;91194;-87
2021/07/10 00:06:05;;;;;;;;;;;20.30;81.40;20.50;99811.00;;;;334876;29;95554;-87
2021/07/10 00:06:16;;;;;;;;;;;20.30;81.40;20.30;99805.00;;;;334871;29;91956;-87
2021/07/10 00:06:28;;;;;;;;;;;20.30;81.70;20.30;99810.00;;;;335703;28;93059;-87
2021/07/10 00:06:40;;;;;;;;;;;20.30;82.00;20.20;99817.00;;;;333552;29;92020;-87
2021/07/10 00:06:51;;;;;;;;;;;20.30;82.10;20.30;99813.00;;;;333828;29;96445;-87
2021/07/10 00:07:04;;;;;;;;;;;20.30;82.10;20.30;99811.00;;;;333609;29;91930;-87
2021/07/10 00:07:16;;;;;;;;;;;20.30;82.10;20.30;99807.00;;;;333838;29;94847;-87
2021/07/10 00:07:28;;;;;;;;;;;20.30;81.80;20.30;99812.00;;;;332053;29;92111;-87
2021/07/10 00:07:39;;;;;;;;;;;20.30;81.40;20.30;99810.00;;;;331192;29;96442;-87
2021/07/10 00:07:52;;;;;;;;;;;20.30;81.60;20.40;99807.00;;;;331131;29;91332;-87
2021/07/10 00:08:04;;;;;;;;;;;20.20;81.00;20.40;99809.00;;;;333787;29;95544;-87
2021/07/10 00:08:16;;;;;;;;;;;20.30;81.20;20.30;99813.00;;;;334920;29;92084;-87
2021/07/10 00:08:28;;;;;;;;;;;20.20;81.80;20.30;99813.00;;;;333827;29;95046;-87
2021/07/10 00:08:39;;;;;;;;;;;20.20;82.20;20.30;99810.00;;;;336153;28;92081;-87
2021/07/10 00:08:51;;;;;;;;;;;20.20;82.10;20.30;99811.00;;;;335152;29;92424;-87
2021/07/10 00:09:03;;;;;;;;;;;20.20;81.70;20.30;99809.00;;;;334448;29;92102;-87
2021/07/10 00:09:15;;;;;;;;;;;20.20;82.00;20.20;99802.00;;;;336259;28;97141;-87
2021/07/10 00:09:27;;;;;;;;;;;20.20;82.10;20.20;99806.00;;;;331894;29;92072;-87
2021/07/10 00:09:39;;;;;;;;;;;20.20;82.40;20.30;99808.00;;;;332627;29;94028;-87
2021/07/10 00:09:50;;;;;;;;;;;20.20;82.30;20.30;99808.00;;;;334881;28;91291;-88
2021/07/10 00:10:11;;;;;;;;;;;20.20;82.70;20.30;99802.00;;;;337665;28;94528;-87
2021/07/10 00:10:23;;;;;;;;;;;20.20;82.40;20.40;99811.00;;;;336130;28;92060;-87
2021/07/10 00:10:34;;;;;;;;;;;20.20;82.20;20.40;99802.00;;;;335104;28;96494;-87
2021/07/10 00:10:46;;;;;;;;;;;20.20;82.40;20.30;99810.00;;;;336295;28;92005;-87
2021/07/10 00:10:58;;;;;;;;;;;20.20;82.40;20.30;99810.00;;;;335228;29;93378;-87
2021/07/10 00:11:10;;;;;;;;;;;20.20;82.80;20.30;99804.00;;;;334513;29;92011;-87
2021/07/10 00:11:21;;;;;;;;;;;20.20;82.30;20.40;99808.00;;;;336298;28;96508;-88
2021/07/10 00:11:34;;;;;;;;;;;20.20;82.20;20.50;99801.00;;;;337490;28;92098;-87
2021/07/10 00:11:46;;;;;;;;;;;20.20;82.30;20.50;99801.00;;;;335099;29;96460;-87
2021/07/10 00:11:58;;;;;;;;;;;20.20;82.20;20.50;99801.00;;;;336972;28;90569;-87
2021/07/10 00:12:10;;;;;;;;;;;20.20;82.40;20.40;99801.00;;;;337032;28;95728;-87
2021/07/10 00:12:22;;;;;;;;;;;20.20;82.40;20.40;99799.00;;;;336146;28;91266;-87
2021/07/10 00:12:33;;;;;;;;;;;20.20;82.70;20.40;99803.00;;;;337706;28;96482;-87
2021/07/10 00:12:45;;;;;;;;;;;20.20;82.40;20.30;99800.00;;;;334755;28;92005;-87
2021/07/10 00:12:57;;;;;;;;;;;20.20;82.70;20.30;99802.00;;;;336155;28;93990;-87
2021/07/10 00:13:08;;;;;;;;;;;20.20;82.40;20.20;99794.00;;;;333559;29;92038;-87
2021/07/10 00:13:20;;;;;;;;;;;20.20;82.70;20.30;99800.00;;;;336464;28;93636;-88
2021/07/10 00:13:32;;;;;;;;;;;20.20;82.60;20.30;99802.00;;;;337546;28;91914;-87
2021/07/10 00:13:44;;;;;;;;;;;20.20;82.80;20.20;99800.00;;;;333618;29;96118;-87
2021/07/10 00:13:56;;;;;;;;;;;20.10;83.10;20.30;99802.00;;;;334933;29;91397;-88
2021/07/10 00:14:07;;;;;;;;;;;20.20;82.80;20.30;99801.00;;;;337649;28;95557;-87
2021/07/10 00:14:20;;;;;;;;;;;20.10;82.50;20.30;99798.00;;;;336149;28;91995;-88
2021/07/10 00:14:31;;;;;;;;;;;20.10;82.20;20.20;99794.00;;;;336362;28;95324;-87
2021/07/10 00:14:43;;;;;;;;;;;20.10;83.00;20.30;99801.00;;;;333533;29;92007;-87
2021/07/10 00:14:55;;;;;;;;;;;20.10;83.00;20.20;99795.00;;;;337345;28;96240;-87
2021/07/10 00:15:11;;;;;;;;;;;20.10;82.70;20.20;99796.00;;;;337069;28;91948;-87
2021/07/10 00:15:23;;;;;;;;;;;20.10;83.20;20.30;99806.00;;;;336395;28;93790;-87
2021/07/10 00:15:35;;;;;;;;;;;20.10;83.00;20.30;99797.00;;;;336134;28;92000;-87
2021/07/10 00:15:47;;;;;;;;;;;20.10;82.90;20.30;99800.00;;;;336432;28;95758;-87
2021/07/10 00:15:58;;;;;;;;;;;20.10;83.00;20.40;99799.00;;;;334789;29;91278;-87
2021/07/10 00:16:10;;;;;;;;;;;20.10;82.90;20.30;99801.00;;;;335172;29;93046;-87
2021/07/10 00:16:22;;;;;;;;;;;20.10;82.70;20.40;99797.00;;;;334971;29;91256;-87
2021/07/10 00:16:34;;;;;;;;;;;20.10;82.70;20.30;99803.00;;;;336368;28;95178;-87
2021/07/10 00:16:46;;;;;;;;;;;20.10;82.80;20.20;99796.00;;;;334854;29;91993;-87
2021/07/10 00:16:58;;;;;;;;;;;20.10;83.10;20.40;99808.00;;;;332491;29;96395;-87
2021/07/10 00:17:09;;;;;;;;;;;20.10;82.80;20.40;99804.00;;;;333314;29;91934;-87
2021/07/10 00:17:21;;;;;;;;;;;20.10;82.60;20.30;99801.00;;;;336373;28;95669;-88
2021/07/10 00:17:33;;;;;;;;;;;20.10;83.00;20.30;99803.00;;;;336225;28;92178;-87
2021/07/10 00:17:44;;;;;;;;;;;20.10;82.50;20.30;99802.00;;;;337812;28;93806;-87
2021/07/10 00:17:56;;;;;;;;;;;20.10;82.10;20.30;99797.00;;;;335283;28;91302;-87
2021/07/10 00:18:08;;;;;;;;;;;20.10;82.40;20.20;99794.00;;;;333798;29;95036;-87
2021/07/10 00:18:19;;;;;;;;;;;20.10;82.30;20.30;99801.00;;;;336067;28;90987;-87
2021/07/10 00:18:31;;;;;;;;;;;20.10;82.30;20.30;99797.00;;;;337650;28;95961;-87
2021/07/10 00:18:43;;;;;;;;;;;20.10;82.40;20.30;99795.00;;;;333580;29;91952;-87
2021/07/10 00:18:55;;;;;;;;;;;20.10;82.40;20.30;99796.00;;;;333858;29;92536;-87
2021/07/10 00:19:06;;;;;;;;;;;20.10;82.30;20.40;99800.00;;;;334919;29;91935;-87
2021/07/10 00:19:18;;;;;;;;;;;20.10;83.00;20.40;99797.00;;;;336385;28;96537;-87
2021/07/10 00:19:30;;;;;;;;;;;20.10;82.50;20.40;99788.00;;;;333590;29;92124;-87
2021/07/10 00:19:41;;;;;;;;;;;20.10;82.70;20.40;99794.00;;;;333446;29;93747;-87
2021/07/10 00:19:53;;;;;;;;;;;20.10;82.70;20.30;99801.00;;;;333548;29;91324;-87
2021/07/10 00:20:08;;;;;;;;;;;20.10;83.10;20.30;99795.00;;;;335048;29;94365;-87
2021/07/10 00:20:20;;;;;;;;;;;20.10;82.70;20.20;99800.00;;;;332222;29;92090;-87
2021/07/10 00:20:32;;;;;;;;;;;20.10;83.10;20.20;99789.00;;;;332678;29;93254;-87
2021/07/10 00:20:44;;;;;;;;;;;20.10;83.00;20.20;99795.00;;;;332222;29;92066;-87
2021/07/10 00:20:55;;;;;;;;;;;20.10;82.50;20.30;99795.00;;;;335465;28;95490;-87
2021/07/10 00:21:07;;;;;;;;;;;20.10;82.30;20.30;99788.00;;;;334830;29;92034;-87
2021/07/10 00:21:19;;;;;;;;;;;20.10;82.10;20.30;99790.00;;;;336361;28;96352;-87
2021/07/10 00:21:32;;;;;;;;;;;20.10;82.40;20.30;99796.00;;;;334842;28;92219;-87
2021/07/10 00:21:44;;;;;;;;;;;20.10;82.50;20.20;99792.00;;;;333908;29;93597;-87
2021/07/10 00:21:55;;;;;;;;;;;20.10;82.70;20.30;99789.00;;;;336143;28;91328;-87
2021/07/10 00:22:07;;;;;;;;;;;20.10;82.60;20.40;99790.00;;;;336394;28;94891;-87
2021/07/10 00:22:19;;;;;;;;;;;20.10;82.80;20.40;99792.00;;;;333584;29;92049;-87
2021/07/10 00:22:31;;;;;;;;;;;20.10;82.70;20.40;99788.00;;;;333897;29;93198;-87
2021/07/10 00:22:43;;;;;;;;;;;20.10;82.70;20.30;99796.00;;;;335948;28;91715;-88
2021/07/10 00:22:54;;;;;;;;;;;20.10;82.70;20.30;99791.00;;;;336473;28;93210;-87
2021/07/10 00:23:06;;;;;;;;;;;20.10;82.70;20.30;99791.00;;;;332415;29;91893;-87
2021/07/10 00:23:18;;;;;;;;;;;20.10;82.90;20.30;99794.00;;;;332430;29;95065;-88
2021/07/10 00:23:30;;;;;;;;;;;20.10;82.60;20.40;99799.00;;;;334880;29;92060;-87
2021/07/10 00:23:41;;;;;;;;;;;20.10;82.80;20.40;99794.00;;;;335077;29;93951;-86
2021/07/10 00:23:53;;;;;;;;;;;20.10;82.90;20.40;99787.00;;;;333282;29;91316;-87
2021/07/10 00:24:05;;;;;;;;;;;20.10;82.90;20.40;99799.00;;;;336218;28;91713;-88
2021/07/10 00:24:17;;;;;;;;;;;20.10;83.10;20.50;99786.00;;;;334797;29;92107;-87
2021/07/10 00:24:30;;;;;;;;;;;20.10;83.30;20.50;99788.00;;;;334275;29;95751;-87
2021/07/10 00:24:42;;;;;;;;;;;20.10;83.20;20.50;99790.00;;;;333649;29;91919;-87
2021/07/10 00:24:54;;;;;;;;;;;20.10;82.90;20.50;99794.00;;;;337752;28;93418;-87
2021/07/10 00:25:09;;;;;;;;;;;20.10;83.00;20.40;99791.00;;;;332327;29;92077;-87
2021/07/10 00:25:20;;;;;;;;;;;20.10;83.70;20.30;99790.00;;;;331223;29;96057;-87
2021/07/10 00:25:32;;;;;;;;;;;20.10;83.20;20.40;99793.00;;;;332339;29;92095;-87
2021/07/10 00:25:44;;;;;;;;;;;20.10;82.80;20.40;99786.00;;;;333850;29;93014;-87
2021/07/10 00:25:55;;;;;;;;;;;20.10;82.80;20.40;99794.00;;;;336233;28;91224;-87
2021/07/10 00:26:07;;;;;;;;;;;20.10;83.10;20.40;99788.00;;;;336240;28;95785;-87
2021/07/10 00:26:19;;;;;;;;;;;20.10;83.00;20.30;99789.00;;;;333290;29;92032;-87
2021/07/10 00:26:32;;;;;;;;;;;20.10;82.90;20.20;99782.00;;;;332526;29;96038;-87
2021/07/10 00:26:44;;;;;;;;;;;20.10;83.70;20.20;99787.00;;;;334758;29;91984;-88
2021/07/10 00:26:56;;;;;;;;;;;20.10;83.50;20.30;99792.00;;;;334748;29;93825;-87
2021/07/10 00:27:07;;;;;;;;;;;20.10;83.20;20.40;99788.00;;;;337019;28;91241;-88
2021/07/10 00:27:19;;;;;;;;;;;20.10;83.20;20.20;99793.00;;;;335100;29;95269;-87
2021/07/10 00:27:31;;;;;;;;;;;20.10;83.50;20.30;99795.00;;;;336038;28;92260;-87
2021/07/10 00:27:43;;;;;;;;;;;20.10;83.50;20.10;99789.00;;;;336414;28;96557;-87
2021/07/10 00:27:55;;;;;;;;;;;20.10;83.30;20.20;99788.00;;;;337455;28;91477;-87
2021/07/10 00:28:07;;;;;;;;;;;20.10;83.30;20.10;99802.00;;;;335093;29;92933;-87
2021/07/10 00:28:19;;;;;;;;;;;20.10;83.70;20.00;99791.00;;;;336239;28;91890;-87
2021/07/10 00:28:31;;;;;;;;;;;20.10;84.00;20.10;99793.00;;;;336386;28;96743;-87
2021/07/10 00:28:43;;;;;;;;;;;20.00;83.60;20.10;99790.00;;;;333475;29;92105;-87
2021/07/10 00:28:54;;;;;;;;;;;20.00;83.40;20.10;99795.00;;;;336250;28;96457;-87
2021/07/10 00:29:06;;;;;;;;;;;20.00;83.50;20.10;99791.00;;;;335987;28;92033;-87
2021/07/10 00:29:18;;;;;;;;;;;20.00;83.60;20.00;99791.00;;;;337787;28;93156;-87
2021/07/10 00:29:30;;;;;;;;;;;20.00;83.50;20.10;99788.00;;;;334699;29;92130;-87
2021/07/10 00:29:41;;;;;;;;;;;20.00;83.10;20.10;99790.00;;;;335046;29;95116;-87
2021/07/10 00:29:53;;;;;;;;;;;20.00;82.90;20.10;99794.00;;;;334644;29;91058;-87
2021/07/10 00:30:06;;;;;;;;;;;20.00;83.60;20.00;99792.00;;;;338798;28;95002;-87
2021/07/10 00:30:19;;;;;;;;;;;20.00;83.60;20.00;99793.00;;;;334779;29;92114;-87
2021/07/10 00:30:30;;;;;;;;;;;20.00;83.70;20.00;99787.00;;;;334771;29;93507;-87
2021/07/10 00:30:42;;;;;;;;;;;20.00;83.50;20.10;99791.00;;;;338689;28;91958;-87
2021/07/10 00:30:54;;;;;;;;;;;20.00;83.10;20.00;99790.00;;;;336478;28;93422;-88
2021/07/10 00:31:05;;;;;;;;;;;20.00;83.80;20.00;99787.00;;;;336159;28;92030;-88
2021/07/10 00:31:17;;;;;;;;;;;20.00;84.10;19.90;99793.00;;;;337801;28;93630;-87
2021/07/10 00:31:29;;;;;;;;;;;19.90;84.00;19.80;99793.00;;;;333586;29;91825;-87
2021/07/10 00:31:41;;;;;;;;;;;19.90;84.10;19.80;99781.00;;;;335027;29;96557;-87
2021/07/10 00:31:53;;;;;;;;;;;19.90;84.20;19.80;99792.00;;;;334971;29;91138;-87
2021/07/10 00:32:05;;;;;;;;;;;19.90;84.20;19.90;99788.00;;;;336307;28;96289;-87
2021/07/10 00:32:17;;;;;;;;;;;19.90;83.70;20.00;99791.00;;;;334934;29;91925;-87
2021/07/10 00:32:29;;;;;;;;;;;19.90;83.40;20.00;99790.00;;;;336457;28;94048;-87
2021/07/10 00:32:41;;;;;;;;;;;19.90;83.40;20.00;99790.00;;;;338811;28;91135;-87
2021/07/10 00:32:53;;;;;;;;;;;19.90;83.50;20.10;99785.00;;;;334369;28;95866;-87
2021/07/10 00:33:05;;;;;;;;;;;19.90;83.50;20.00;99785.00;;;;333743;29;91996;-87
2021/07/10 00:33:17;;;;;;;;;;;19.90;83.20;20.10;99791.00;;;;335063;29;95092;-87
2021/07/10 00:33:29;;;;;;;;;;;19.90;83.20;20.10;99788.00;;;;335655;28;91996;-87
2021/07/10 00:33:42;;;;;;;;;;;19.90;83.20;20.00;99786.00;;;;335165;29;93542;-87
2021/07/10 00:33:54;;;;;;;;;;;19.90;83.20;20.00;99781.00;;;;336166;28;91345;-87
2021/07/10 00:34:05;;;;;;;;;;;19.90;83.30;20.00;99781.00;;;;336285;28;95762;-87
2021/07/10 00:34:17;;;;;;;;;;;19.90;83.50;20.00;99791.00;;;;333664;29;91879;-87
2021/07/10 00:34:29;;;;;;;;;;;19.90;83.50;20.10;99788.00;;;;333852;29;93292;-87
2021/07/10 00:34:41;;;;;;;;;;;19.90;83.60;20.20;99780.00;;;;336112;28;91920;-87
2021/07/10 00:34:52;;;;;;;;;;;19.90;83.60;20.20;99785.00;;;;336345;28;96473;-87
2021/07/10 00:35:06;;;;;;;;;;;19.90;83.60;20.10;99783.00;;;;336173;28;91827;-87
2021/07/10 00:35:17;;;;;;;;;;;19.90;83.50;20.00;99788.00;;;;336419;28;94667;-87
2021/07/10 00:35:29;;;;;;;;;;;19.90;83.50;20.00;99784.00;;;;337395;28;92086;-86
2021/07/10 00:35:41;;;;;;;;;;;19.90;83.70;20.00;99788.00;;;;335029;29;94703;-87
2021/07/10 00:35:53;;;;;;;;;;;19.90;83.70;20.00;99788.00;;;;333589;29;91230;-88
2021/07/10 00:36:04;;;;;;;;;;;19.90;83.60;20.00;99779.00;;;;336901;28;92457;-87
2021/07/10 00:36:16;;;;;;;;;;;19.90;83.70;19.90;99788.00;;;;337233;28;91990;-87
2021/07/10 00:36:28;;;;;;;;;;;19.90;83.80;19.90;99778.00;;;;337022;28;93934;-87
2021/07/10 00:36:39;;;;;;;;;;;19.90;83.90;19.90;99784.00;;;;336002;28;92051;-88
2021/07/10 00:36:51;;;;;;;;;;;19.90;83.70;20.00;99788.00;;;;337657;28;96311;-87
2021/07/10 00:37:03;;;;;;;;;;;19.80;83.10;20.00;99778.00;;;;334978;28;92156;-87
2021/07/10 00:37:15;;;;;;;;;;;19.90;83.10;20.10;99778.00;;;;336424;28;93421;-87
2021/07/10 00:37:26;;;;;;;;;;;19.90;83.50;20.10;99781.00;;;;336091;28;91091;-87
2021/07/10 00:37:38;;;;;;;;;;;19.90;83.80;20.00;99783.00;;;;333785;29;94899;-87
2021/07/10 00:37:50;;;;;;;;;;;19.90;84.00;20.00;99787.00;;;;334814;29;91343;-87
2021/07/10 00:38:02;;;;;;;;;;;19.80;83.90;19.90;99776.00;;;;335095;29;94359;-87
2021/07/10 00:38:14;;;;;;;;;;;19.80;84.30;19.80;99785.00;;;;334894;29;92124;-87
2021/07/10 00:38:26;;;;;;;;;;;19.80;84.60;19.80;99778.00;;;;334893;29;95649;-87
2021/07/10 00:38:37;;;;;;;;;;;19.80;84.50;20.00;99773.00;;;;333615;29;91972;-87
2021/07/10 00:38:49;;;;;;;;;;;19.80;84.10;19.80;99781.00;;;;333617;29;94016;-87
2021/07/10 00:39:01;;;;;;;;;;;19.80;84.60;19.70;99782.00;;;;337139;28;92162;-87
2021/07/10 00:39:13;;;;;;;;;;;19.80;84.60;19.70;99778.00;;;;334057;29;93951;-87
2021/07/10 00:39:24;;;;;;;;;;;19.80;84.50;19.80;99783.00;;;;336104;28;91225;-87
2021/07/10 00:39:36;;;;;;;;;;;19.80;84.40;19.80;99784.00;;;;337476;28;96608;-87
2021/07/10 00:39:48;;;;;;;;;;;19.70;84.10;19.90;99781.00;;;;337322;28;91340;-87
2021/07/10 00:39:59;;;;;;;;;;;19.70;84.10;20.00;99784.00;;;;335047;29;92804;-87
2021/07/10 00:40:11;;;;;;;;;;;19.70;84.10;20.00;99778.00;;;;334735;29;92111;-87
2021/07/10 00:40:23;;;;;;;;;;;19.80;84.70;20.00;99781.00;;;;339003;28;95261;-87
2021/07/10 00:40:35;;;;;;;;;;;19.80;84.20;20.10;99782.00;;;;338729;28;92072;-87
2021/07/10 00:40:47;;;;;;;;;;;19.80;84.10;20.10;99779.00;;;;337579;28;95230;-87
2021/07/10 00:40:59;;;;;;;;;;;19.80;84.10;20.00;99774.00;;;;334899;29;91980;-87
2021/07/10 00:41:11;;;;;;;;;;;19.80;84.20;19.80;99776.00;;;;337719;28;93543;-87
2021/07/10 00:41:23;;;;;;;;;;;19.80;84.40;19.80;99776.00;;;;338833;28;91909;-87
2021/07/10 00:41:35;;;;;;;;;;;19.80;84.60;19.90;99782.00;;;;336485;28;95897;-87
2021/07/10 00:41:47;;;;;;;;;;;19.80;84.70;19.90;99783.00;;;;337551;28;91155;-87
2021/07/10 00:41:59;;;;;;;;;;;19.80;84.60;20.00;99776.00;;;;335911;28;91629;-87
2021/07/10 00:42:11;;;;;;;;;;;19.80;84.40;20.00;99776.00;;;;336844;28;91819;-87
2021/07/10 00:42:23;;;;;;;;;;;19.70;84.10;20.00;99776.00;;;;336172;28;92771;-87
2021/07/10 00:42:35;;;;;;;;;;;19.80;84.20;19.90;99772.00;;;;334857;29;92061;-87
2021/07/10 00:42:47;;;;;;;;;;;19.80;84.50;19.80;99777.00;;;;336283;28;95854;-87
2021/07/10 00:42:59;;;;;;;;;;;19.70;84.40;19.80;99781.00;;;;334704;29;91952;-87
2021/07/10 00:43:11;;;;;;;;;;;19.80;84.60;19.90;99780.00;;;;336309;28;95872;-87
2021/07/10 00:43:22;;;;;;;;;;;19.70;84.70;20.00;99775.00;;;;336107;28;92034;-87
2021/07/10 00:43:34;;;;;;;;;;;19.70;84.50;20.00;99782.00;;;;336366;28;95298;-87
2021/07/10 00:43:49;;;;;;;;;;;19.70;84.60;20.00;99774.00;;;;337578;28;91291;-87
2021/07/10 00:44:01;;;;;;;;;;;19.70;84.50;20.10;99776.00;;;;332549;29;92483;-87
2021/07/10 00:44:12;;;;;;;;;;;19.80;84.60;20.10;99775.00;;;;333473;29;92003;-88
2021/07/10 00:44:24;;;;;;;;;;;19.80;84.30;20.10;99777.00;;;;335148;29;94658;-87
2021/07/10 00:44:36;;;;;;;;;;;19.80;84.30;20.00;99780.00;;;;332282;29;91981;-87
2021/07/10 00:44:48;;;;;;;;;;;19.80;84.40;19.90;99777.00;;;;336332;28;95052;-87
2021/07/10 00:45:00;;;;;;;;;;;19.80;84.60;19.90;99774.00;;;;335643;28;92198;-87
2021/07/10 00:45:13;;;;;;;;;;;19.80;84.50;19.70;99773.00;;;;335863;28;95956;-87
2021/07/10 00:45:24;;;;;;;;;;;19.80;85.10;19.60;99771.00;;;;337266;28;92041;-87
2021/07/10 00:45:36;;;;;;;;;;;19.70;85.30;19.60;99776.00;;;;337705;28;96199;-87
2021/07/10 00:45:48;;;;;;;;;;;19.70;85.20;19.80;99769.00;;;;333518;29;91334;-87
2021/07/10 00:46:06;;;;;;;;;;;19.70;84.90;19.80;99773.00;;;;336368;28;95006;-87
2021/07/10 00:46:19;;;;;;;;;;;19.70;84.70;19.80;99771.00;;;;337407;28;93081;-87
2021/07/10 00:46:31;;;;;;;;;;;19.70;84.60;19.90;99776.00;;;;337684;28;94296;-87
2021/07/10 00:46:42;;;;;;;;;;;19.70;84.50;19.90;99768.00;;;;337457;28;92040;-87
2021/07/10 00:46:54;;;;;;;;;;;19.70;84.40;19.90;99770.00;;;;336323;28;95443;-87
2021/07/10 00:47:06;;;;;;;;;;;19.70;84.50;19.90;99772.00;;;;336251;28;91879;-87
2021/07/10 00:47:18;;;;;;;;;;;19.70;84.40;19.90;99764.00;;;;335079;29;94817;-87
2021/07/10 00:47:29;;;;;;;;;;;19.70;84.40;19.90;99773.00;;;;337518;28;92649;-88
2021/07/10 00:47:41;;;;;;;;;;;19.70;84.70;19.90;99774.00;;;;336341;28;96493;-87
2021/07/10 00:47:53;;;;;;;;;;;19.70;84.50;20.00;99771.00;;;;335997;28;91202;-87
2021/07/10 00:48:05;;;;;;;;;;;19.70;84.40;19.90;99766.00;;;;337034;28;92046;-87
2021/07/10 00:48:17;;;;;;;;;;;19.70;84.50;19.90;99766.00;;;;335962;28;92249;-87
2021/07/10 00:48:29;;;;;;;;;;;19.70;84.60;20.00;99766.00;;;;338935;28;94588;-87
2021/07/10 00:48:40;;;;;;;;;;;19.70;84.70;19.80;99767.00;;;;336094;28;91688;-87
2021/07/10 00:48:52;;;;;;;;;;;19.70;85.20;19.70;99764.00;;;;335068;29;95866;-87
2021/07/10 00:49:04;;;;;;;;;;;19.70;85.20;19.60;99770.00;;;;334671;29;92066;-87
2021/07/10 00:49:17;;;;;;;;;;;19.70;85.30;19.60;99766.00;;;;334830;29;96348;-86
2021/07/10 00:49:29;;;;;;;;;;;19.60;85.10;19.60;99767.00;;;;334770;29;92024;-87
2021/07/10 00:49:41;;;;;;;;;;;19.60;85.30;19.80;99771.00;;;;335111;29;94422;-87
2021/07/10 00:49:52;;;;;;;;;;;19.60;84.80;19.70;99768.00;;;;336247;28;91451;-87
2021/07/10 00:50:12;;;;;;;;;;;19.60;85.10;19.70;99764.00;;;;337646;28;94163;-87
2021/07/10 00:50:24;;;;;;;;;;;19.60;85.40;19.60;99771.00;;;;334793;29;91909;-87
2021/07/10 00:50:37;;;;;;;;;;;19.60;85.30;19.70;99764.00;;;;335012;29;96363;-87
2021/07/10 00:50:48;;;;;;;;;;;19.60;84.80;19.70;99763.00;;;;334722;29;91882;-86
2021/07/10 00:51:01;;;;;;;;;;;19.60;84.80;19.70;99764.00;;;;334990;28;94920;-87
2021/07/10 00:51:13;;;;;;;;;;;19.60;84.90;19.70;99770.00;;;;337870;28;92084;-86
2021/07/10 00:51:25;;;;;;;;;;;19.60;84.50;19.70;99758.00;;;;337450;28;94724;-87
2021/07/10 00:51:36;;;;;;;;;;;19.60;84.20;19.70;99763.00;;;;337474;28;92016;-87
2021/07/10 00:51:48;;;;;;;;;;;19.60;84.00;19.70;99761.00;;;;336424;28;93434;-87
2021/07/10 00:52:00;;;;;;;;;;;19.60;84.00;19.70;99761.00;;;;336163;28;90343;-87
2021/07/10 00:52:12;;;;;;;;;;;19.60;84.00;19.70;99765.00;;;;336398;28;94123;-87
2021/07/10 00:52:23;;;;;;;;;;;19.60;84.70;19.70;99767.00;;;;336133;28;91958;-87
2021/07/10 00:52:35;;;;;;;;;;;19.60;84.80;19.60;99760.00;;;;335106;29;96459;-87
2021/07/10 00:52:47;;;;;;;;;;;19.50;85.00;19.60;99767.00;;;;335793;28;92081;-87
2021/07/10 00:52:59;;;;;;;;;;;19.50;85.30;19.60;99765.00;;;;336166;28;94907;-87
2021/07/10 00:53:11;;;;;;;;;;;19.60;85.10;19.60;99764.00;;;;336181;28;91886;-88
2021/07/10 00:53:22;;;;;;;;;;;19.60;84.80;19.60;99767.00;;;;336403;28;93378;-87
2021/07/10 00:53:34;;;;;;;;;;;19.50;84.20;19.70;99763.00;;;;336099;28;92063;-87
2021/07/10 00:53:49;;;;;;;;;;;19.50;84.20;19.60;99766.00;;;;336399;28;96380;-87
2021/07/10 00:54:02;;;;;;;;;;;19.50;84.70;19.70;99765.00;;;;335132;28;91403;-87
2021/07/10 00:54:13;;;;;;;;;;;19.50;84.50;19.70;99756.00;;;;335719;28;92341;-87
2021/07/10 00:54:25;;;;;;;;;;;19.50;84.30;19.70;99766.00;;;;336421;28;91882;-87
2021/07/10 00:54:37;;;;;;;;;;;19.50;84.90;19.60;99764.00;;;;333947;29;96860;-87
2021/07/10 00:54:49;;;;;;;;;;;19.50;85.10;19.70;99757.00;;;;335086;29;92023;-87
2021/07/10 00:55:01;;;;;;;;;;;19.50;84.60;19.70;99765.00;;;;335234;29;93553;-88
2021/07/10 00:55:13;;;;;;;;;;;19.50;84.50;19.70;99759.00;;;;334986;29;91875;-87
2021/07/10 00:55:24;;;;;;;;;;;19.60;84.60;19.70;99758.00;;;;336394;28;93612;-87
2021/07/10 00:55:36;;;;;;;;;;;19.50;84.40;19.70;99759.00;;;;335230;29;92006;-87
2021/07/10 00:55:48;;;;;;;;;;;19.50;84.30;19.70;99763.00;;;;335345;29;93282;-88
2021/07/10 00:56:00;;;;;;;;;;;19.50;84.20;19.70;99761.00;;;;336258;28;91258;-87
2021/07/10 00:56:11;;;;;;;;;;;19.50;84.70;19.70;99759.00;;;;335360;29;92913;-87
2021/07/10 00:56:23;;;;;;;;;;;19.50;84.40;19.70;99766.00;;;;336354;28;91926;-87
2021/07/10 00:56:35;;;;;;;;;;;19.50;84.30;19.70;99760.00;;;;335285;29;95115;-87
2021/07/10 00:56:47;;;;;;;;;;;19.50;84.20;19.70;99766.00;;;;336403;28;91964;-87
2021/07/10 00:57:00;;;;;;;;;;;19.60;84.30;19.70;99766.00;;;;337724;28;96482;-86
2021/07/10 00:57:11;;;;;;;;;;;19.50;84.20;19.80;99768.00;;;;336247;28;91889;-87
2021/07/10 00:57:23;;;;;;;;;;;19.60;84.30;19.70;99759.00;;;;337605;28;96688;-87
2021/07/10 00:57:35;;;;;;;;;;;19.60;84.30;19.80;99773.00;;;;333500;29;91210;-87
2021/07/10 00:57:47;;;;;;;;;;;19.50;84.60;19.80;99764.00;;;;332768;29;93492;-87
2021/07/10 00:57:59;;;;;;;;;;;19.50;84.50;19.70;99765.00;;;;332904;29;91291;-87
2021/07/10 00:58:11;;;;;;;;;;;19.50;84.40;19.70;99761.00;;;;336587;28;92450;-87
2021/07/10 00:58:22;;;;;;;;;;;19.50;84.40;19.70;99765.00;;;;339038;28;91960;-87
2021/07/10 00:58:35;;;;;;;;;;;19.50;84.50;19.70;99767.00;;;;337872;28;95825;-87
2021/07/10 00:58:47;;;;;;;;;;;19.60;84.80;19.70;99765.00;;;;335000;29;91337;-86
2021/07/10 00:58:58;;;;;;;;;;;19.60;84.60;19.70;99765.00;;;;335279;29;95051;-87
2021/07/10 00:59:14;;;;;;;;;;;19.60;84.60;19.70;99763.00;;;;335244;29;91901;-87
2021/07/10 00:59:26;;;;;;;;;;;19.50;84.50;19.80;99758.00;;;;336518;28;93832;-87